createdAt,value
2018-05-17T00:01:30.084Z,15.20
2018-05-17T00:03:57.523Z,11.87
2018-05-17T00:06:24.967Z,14.53
2018-05-17T00:08:52.411Z,18.27
2018-05-17T00:11:19.862Z,26.67
2018-05-17T00:13:47.286Z,16.13
2018-05-17T00:16:15.496Z,16.83
2018-05-17T00:18:42.940Z,15.53
2018-05-17T00:21:10.387Z,18.43
2018-05-17T00:23:37.858Z,13.97
2018-05-17T00:26:05.296Z,15.60
2018-05-17T00:28:33.499Z,14.43
2018-05-17T00:31:00.944Z,17.73
2018-05-17T00:33:28.375Z,15.23
2018-05-17T00:35:56.587Z,16.80
2018-05-17T00:38:24.019Z,15.63
2018-05-17T00:40:51.460Z,16.47
2018-05-17T00:43:19.659Z,15.30
2018-05-17T00:45:47.103Z,16.40
2018-05-17T00:48:15.305Z,21.80
2018-05-17T00:50:42.743Z,19.53
2018-05-17T00:53:22.051Z,23.60
2018-05-17T00:55:49.511Z,20.03
2018-05-17T00:58:17.711Z,18.10
2018-05-17T01:00:45.150Z,21.53
2018-05-17T01:03:13.363Z,18.30
2018-05-17T01:05:40.816Z,16.47
2018-05-17T01:08:08.239Z,19.07
2018-05-17T01:10:36.445Z,16.47
2018-05-17T01:13:03.878Z,20.90
2018-05-17T01:15:31.316Z,19.53
2018-05-17T01:17:59.523Z,21.43
2018-05-17T01:20:26.961Z,21.63
2018-05-17T01:22:55.208Z,17.33
2018-05-17T01:25:22.643Z,21.40
2018-05-17T01:27:50.083Z,19.00
2018-05-17T01:30:17.520Z,19.03
2018-05-17T01:32:44.963Z,26.23
2018-05-17T01:35:13.215Z,18.00
2018-05-17T01:37:52.467Z,19.50
2018-05-17T01:40:20.676Z,19.13
2018-05-17T01:42:48.118Z,21.50
2018-05-17T01:45:15.550Z,26.80
2018-05-17T01:47:43.763Z,20.50
2018-05-17T01:50:11.207Z,24.10
2018-05-17T01:52:38.646Z,21.10
2018-05-17T01:55:06.857Z,20.23
2018-05-17T01:57:34.295Z,20.87
2018-05-17T02:00:01.735Z,18.60
2018-05-17T02:02:29.959Z,26.50
2018-05-17T02:04:57.399Z,19.27
2018-05-17T02:07:24.839Z,22.70
2018-05-17T02:09:52.271Z,22.80
2018-05-17T02:12:20.483Z,24.77
2018-05-17T02:14:47.956Z,21.67
2018-05-17T02:17:15.385Z,26.97
2018-05-17T02:19:42.827Z,21.93
2018-05-17T02:22:11.023Z,23.00
2018-05-17T02:24:38.458Z,23.57
2018-05-17T02:27:06.647Z,26.47
2018-05-17T02:29:34.190Z,23.60
2018-05-17T02:32:02.518Z,23.67
2018-05-17T02:34:30.471Z,21.97
2018-05-17T02:36:57.970Z,24.27
2018-05-17T02:39:25.523Z,23.00
2018-05-17T02:41:52.907Z,23.43
2018-05-17T02:44:21.122Z,23.20
2018-05-17T02:46:48.553Z,23.57
2018-05-17T02:49:16.843Z,24.13
2018-05-17T02:51:44.192Z,24.30
2018-05-17T02:54:11.635Z,24.90
2018-05-17T02:56:39.864Z,24.33
2018-05-17T02:59:08.066Z,24.97
2018-05-17T03:01:35.497Z,24.67
2018-05-17T03:04:02.945Z,24.80
2018-05-17T03:06:30.742Z,25.30
2018-05-17T03:08:58.183Z,29.23
2018-05-17T03:11:25.629Z,25.60
2018-05-17T03:13:53.072Z,25.67
2018-05-17T03:16:20.507Z,25.40
2018-05-17T03:18:48.003Z,24.33
2018-05-17T03:21:15.444Z,26.10
2018-05-17T03:23:42.895Z,26.20
2018-05-17T03:26:10.326Z,24.70
2018-05-17T03:28:37.767Z,23.93
2018-05-17T03:31:05.976Z,23.40
2018-05-17T03:33:33.406Z,23.80
2018-05-17T03:36:01.613Z,23.50
2018-05-17T03:38:29.043Z,20.87
2018-05-17T03:40:56.539Z,20.83
2018-05-17T03:43:24.683Z,19.57
2018-05-17T03:45:52.119Z,20.83
2018-05-17T03:48:20.320Z,19.13
2018-05-17T03:50:47.758Z,24.83
2018-05-17T03:53:15.185Z,19.60
2018-05-17T03:55:42.692Z,21.50
2018-05-17T03:58:10.075Z,17.10
2018-05-17T04:00:49.478Z,21.13
2018-05-17T04:03:28.754Z,22.47
2018-05-17T04:06:08.099Z,21.90
2018-05-17T04:08:35.592Z,21.67
2018-05-17T04:11:03.796Z,22.00
2018-05-17T04:13:31.222Z,26.40
2018-05-17T04:15:58.662Z,28.00
2018-05-17T04:18:26.863Z,27.40
2018-05-17T04:20:54.303Z,26.23
2018-05-17T04:23:22.495Z,26.20
2018-05-17T04:25:49.938Z,26.73
2018-05-17T04:28:18.134Z,25.90
2018-05-17T04:30:45.570Z,24.97
2018-05-17T04:33:13.771Z,24.80
2018-05-17T04:35:41.232Z,24.90
2018-05-17T04:38:08.647Z,24.03
2018-05-17T04:40:36.858Z,24.97
2018-05-17T04:43:04.292Z,22.90
2018-05-17T04:45:31.726Z,22.27
2018-05-17T04:47:59.926Z,25.20
2018-05-17T04:50:27.368Z,24.70
2018-05-17T04:52:55.568Z,23.87
2018-05-17T04:55:23.047Z,26.57
2018-05-17T04:57:50.478Z,24.97
2018-05-17T05:00:17.914Z,27.57
2018-05-17T05:02:46.138Z,31.13
2018-05-17T05:05:13.563Z,33.77
2018-05-17T05:07:41.005Z,37.10
2018-05-17T05:10:09.212Z,33.17
2018-05-17T05:12:36.650Z,36.23
2018-05-17T05:15:04.083Z,32.97
2018-05-17T05:17:32.302Z,29.80
2018-05-17T05:19:59.725Z,35.50
2018-05-17T05:22:27.931Z,30.17
2018-05-17T05:24:55.363Z,32.83
2018-05-17T05:27:22.815Z,35.00
2018-05-17T05:29:51.116Z,39.30
2018-05-17T05:32:18.567Z,41.13
2018-05-17T05:34:45.996Z,38.03
2018-05-17T05:37:14.207Z,40.50
2018-05-17T05:39:41.642Z,46.73
2018-05-17T05:42:09.851Z,51.03
2018-05-17T05:44:37.302Z,46.50
2018-05-17T05:47:04.745Z,45.43
2018-05-17T05:49:32.202Z,51.87
2018-05-17T05:52:00.390Z,56.30
2018-05-17T05:54:27.829Z,53.57
2018-05-17T05:56:55.267Z,60.33
2018-05-17T05:59:23.463Z,60.00
2018-05-17T06:01:50.904Z,81.47
2018-05-17T06:04:19.110Z,74.47
2018-05-17T06:06:46.579Z,75.17
2018-05-17T06:09:13.977Z,71.07
2018-05-17T06:11:42.195Z,67.47
2018-05-17T06:14:09.630Z,70.70
2018-05-17T06:16:37.064Z,66.37
2018-05-17T06:19:04.499Z,73.67
2018-05-17T06:21:31.935Z,69.40
2018-05-17T06:23:59.424Z,82.13
2018-05-17T06:26:26.854Z,80.80
2018-05-17T06:28:54.291Z,86.13
2018-05-17T06:31:21.731Z,90.73
2018-05-17T06:33:49.171Z,87.97
2018-05-17T06:36:17.366Z,92.33
2018-05-17T06:38:44.811Z,94.53
2018-05-17T06:41:12.250Z,94.93
2018-05-17T06:43:39.690Z,94.00
2018-05-17T06:46:07.145Z,84.83
2018-05-17T06:48:34.571Z,74.03
2018-05-17T06:51:02.003Z,58.83
2018-05-17T06:53:29.439Z,45.30
2018-05-17T06:55:57.655Z,44.30
2018-05-17T06:58:25.087Z,35.23
2018-05-17T07:00:52.567Z,31.03
2018-05-17T07:03:20.722Z,30.07
2018-05-17T07:05:48.164Z,28.70
2018-05-17T07:08:16.369Z,16.73
2018-05-17T07:10:43.798Z,20.13
2018-05-17T07:13:11.234Z,17.83
2018-05-17T07:15:38.665Z,16.23
2018-05-17T07:18:06.253Z,16.77
2018-05-17T07:20:33.530Z,16.30
2018-05-17T07:23:00.971Z,16.53
2018-05-17T07:25:29.181Z,14.73
2018-05-17T07:27:56.618Z,16.47
2018-05-17T07:30:24.060Z,14.07
2018-05-17T07:32:52.272Z,14.30
2018-05-17T07:35:19.706Z,13.47
2018-05-17T07:37:47.130Z,15.43
2018-05-17T07:40:14.567Z,16.90
2018-05-17T07:42:42.017Z,14.40
2018-05-17T07:45:09.455Z,13.60
2018-05-17T07:47:36.899Z,13.20
2018-05-17T07:50:04.317Z,9.07
2018-05-17T07:52:31.739Z,9.67
2018-05-17T07:54:59.179Z,11.83
2018-05-17T07:57:26.606Z,11.27
2018-05-17T07:59:54.815Z,12.20
2018-05-17T08:02:22.255Z,11.63
2018-05-17T08:04:49.688Z,12.10
2018-05-17T08:07:17.878Z,12.03
2018-05-17T08:09:45.310Z,14.07
2018-05-17T08:12:13.531Z,13.87
2018-05-17T08:14:40.970Z,18.73
2018-05-17T08:17:08.402Z,20.70
2018-05-17T08:19:36.607Z,22.57
2018-05-17T08:22:04.034Z,21.90
2018-05-17T08:24:32.244Z,18.93
2018-05-17T08:26:59.674Z,17.73
2018-05-17T08:29:27.875Z,17.37
2018-05-17T08:31:55.305Z,14.73
2018-05-17T08:34:23.511Z,16.13
2018-05-17T08:36:50.938Z,16.03
2018-05-17T08:39:19.148Z,15.80
2018-05-17T08:41:46.585Z,16.30
2018-05-17T08:44:14.026Z,15.70
2018-05-17T08:46:42.228Z,17.27
2018-05-17T08:49:09.654Z,18.20
2018-05-17T08:51:37.857Z,17.07
2018-05-17T08:54:05.291Z,22.23
2018-05-17T08:56:32.723Z,25.97
2018-05-17T08:59:00.935Z,22.03
2018-05-17T09:01:28.374Z,24.37
2018-05-17T09:03:56.574Z,31.23
2018-05-17T09:06:24.019Z,27.87
2018-05-17T09:08:51.450Z,32.23
2018-05-17T09:11:19.662Z,33.57
2018-05-17T09:13:47.185Z,34.37
2018-05-17T09:16:14.577Z,43.90
2018-05-17T09:18:42.022Z,30.10
2018-05-17T09:21:09.459Z,40.63
2018-05-17T09:23:37.670Z,37.17
2018-05-17T09:26:05.117Z,42.93
2018-05-17T09:28:32.556Z,38.10
2018-05-17T09:30:59.991Z,37.57
2018-05-17T09:33:28.199Z,40.73
2018-05-17T09:35:55.638Z,44.47
2018-05-17T09:38:23.075Z,44.00
2018-05-17T09:40:50.584Z,37.03
2018-05-17T09:43:17.946Z,40.90
2018-05-17T09:45:45.390Z,45.13
2018-05-17T09:48:12.831Z,41.93
2018-05-17T09:50:40.267Z,44.70
2018-05-17T09:53:08.462Z,41.90
2018-05-17T09:55:35.919Z,40.90
2018-05-17T09:58:03.356Z,41.33
2018-05-17T10:00:31.560Z,42.97
2018-05-17T10:02:59.067Z,41.77
2018-05-17T10:05:26.435Z,44.70
2018-05-17T10:07:53.900Z,43.37
2018-05-17T10:10:22.101Z,38.10
2018-05-17T10:12:49.541Z,41.60
2018-05-17T10:15:17.750Z,42.13
2018-05-17T10:17:45.203Z,40.13
2018-05-17T10:20:12.640Z,43.33
2018-05-17T10:22:40.084Z,38.10
2018-05-17T10:25:08.332Z,41.67
2018-05-17T10:27:35.753Z,40.23
2018-05-17T10:30:03.199Z,36.07
2018-05-17T10:32:30.634Z,34.23
2018-05-17T10:34:58.851Z,41.77
2018-05-17T10:37:26.293Z,37.73
2018-05-17T10:39:53.914Z,37.80
2018-05-17T10:42:21.347Z,40.60
2018-05-17T10:44:49.399Z,39.13
2018-05-17T10:47:16.853Z,35.03
2018-05-17T10:49:44.282Z,40.97
2018-05-17T10:52:12.483Z,37.10
2018-05-17T10:54:39.912Z,35.30
2018-05-17T10:57:08.123Z,39.83
2018-05-17T10:59:35.543Z,37.13
2018-05-17T11:02:03.754Z,41.57
2018-05-17T11:04:31.191Z,43.87
2018-05-17T11:06:58.624Z,40.57
2018-05-17T11:09:26.829Z,37.37
2018-05-17T11:11:54.271Z,35.07
2018-05-17T11:14:22.471Z,41.53
2018-05-17T11:16:49.906Z,38.13
2018-05-17T11:19:17.343Z,41.27
2018-05-17T11:21:45.559Z,32.67
2018-05-17T11:24:13.068Z,33.90
2018-05-17T11:26:40.504Z,33.23
2018-05-17T11:29:07.951Z,34.73
2018-05-17T11:31:35.408Z,34.97
2018-05-17T11:34:02.850Z,40.30
2018-05-17T11:36:30.286Z,39.07
2018-05-17T11:38:57.727Z,39.03
2018-05-17T11:41:25.928Z,40.23
2018-05-17T11:43:53.361Z,40.27
2018-05-17T11:46:21.571Z,36.90
2018-05-17T11:48:49.003Z,40.77
2018-05-17T11:51:16.448Z,32.47
2018-05-17T11:53:44.651Z,34.90
2018-05-17T11:56:12.078Z,35.93
2018-05-17T11:58:40.284Z,37.20
2018-05-17T12:01:07.715Z,37.13
2018-05-17T12:03:35.150Z,39.33
2018-05-17T12:06:03.351Z,40.87
2018-05-17T12:08:30.853Z,41.60
2018-05-17T12:10:59.056Z,43.03
2018-05-17T12:13:26.490Z,41.40
2018-05-17T12:15:54.126Z,38.70
2018-05-17T12:18:21.566Z,40.20
2018-05-17T12:20:49.003Z,43.17
2018-05-17T12:23:17.215Z,37.90
2018-05-17T12:25:44.651Z,37.30
2018-05-17T12:28:12.100Z,36.43
2018-05-17T12:30:39.531Z,36.53
2018-05-17T12:33:07.335Z,34.17
2018-05-17T12:35:34.767Z,38.53
2018-05-17T12:38:02.979Z,34.73
2018-05-17T12:40:30.439Z,33.73
2018-05-17T12:42:57.883Z,35.53
2018-05-17T12:45:25.337Z,35.07
2018-05-17T12:47:52.762Z,31.37
2018-05-17T12:50:20.975Z,40.03
2018-05-17T12:52:48.419Z,32.73
2018-05-17T12:55:15.855Z,40.07
2018-05-17T12:57:44.052Z,32.17
2018-05-17T13:00:11.495Z,39.07
2018-05-17T13:02:39.706Z,36.17
2018-05-17T13:05:26.659Z,40.03
2018-05-17T13:07:54.087Z,37.30
2018-05-17T13:10:21.527Z,32.50
2018-05-17T13:12:48.968Z,33.20
2018-05-17T13:15:16.413Z,37.03
2018-05-17T13:17:43.854Z,36.63
2018-05-17T13:20:12.071Z,43.60
2018-05-17T13:22:39.527Z,37.53
2018-05-17T13:25:06.971Z,41.07
2018-05-17T13:27:34.410Z,33.77
2018-05-17T13:30:02.615Z,38.80
2018-05-17T13:32:30.115Z,35.80
2018-05-17T13:34:57.535Z,36.27
2018-05-17T13:37:24.995Z,33.70
2018-05-17T13:39:52.617Z,31.03
2018-05-17T13:42:20.816Z,36.00
2018-05-17T13:44:48.279Z,34.83
2018-05-17T13:47:15.714Z,39.90
2018-05-17T13:49:43.920Z,46.73
2018-05-17T13:52:11.362Z,39.10
2018-05-17T13:54:38.795Z,36.37
2018-05-17T13:57:07.091Z,41.30
2018-05-17T13:59:34.542Z,38.37
2018-05-17T14:02:01.975Z,40.73
2018-05-17T14:04:30.174Z,36.60
2018-05-17T14:06:57.616Z,33.90
2018-05-17T14:09:25.855Z,36.37
2018-05-17T14:11:53.309Z,33.70
2018-05-17T14:14:20.735Z,33.80
2018-05-17T14:16:48.259Z,32.13
2018-05-17T14:19:15.611Z,39.10
2018-05-17T14:21:43.814Z,32.27
2018-05-17T14:24:11.289Z,40.77
2018-05-17T14:26:38.729Z,34.23
2018-05-17T14:29:06.162Z,39.10
2018-05-17T14:31:34.367Z,47.37
2018-05-17T14:34:01.820Z,38.27
2018-05-17T14:36:29.246Z,42.27
2018-05-17T14:39:01.161Z,34.90
2018-05-17T14:41:28.586Z,38.53
2018-05-17T14:43:56.019Z,39.60
2018-05-17T14:46:24.230Z,44.13
2018-05-17T14:48:51.663Z,37.67
2018-05-17T14:51:19.095Z,38.73
2018-05-17T14:53:46.541Z,33.90
2018-05-17T14:56:14.162Z,32.80
2018-05-17T14:58:41.603Z,32.80
2018-05-17T15:01:09.043Z,30.00
2018-05-17T15:03:37.249Z,33.20
2018-05-17T15:06:04.693Z,32.77
2018-05-17T15:08:32.170Z,37.80
2018-05-17T15:11:00.318Z,33.73
2018-05-17T15:13:27.760Z,35.33
2018-05-17T15:15:55.954Z,38.47
2018-05-17T15:18:23.394Z,33.40
2018-05-17T15:20:51.598Z,34.60
2018-05-17T15:23:19.039Z,35.53
2018-05-17T15:25:46.475Z,29.80
2018-05-17T15:28:14.794Z,35.63
2018-05-17T15:30:42.258Z,38.07
2018-05-17T15:33:09.702Z,30.13
2018-05-17T15:35:37.143Z,31.07
2018-05-17T15:38:04.574Z,39.93
2018-05-17T15:40:32.774Z,31.30
2018-05-17T15:43:00.209Z,35.53
2018-05-17T15:45:28.685Z,30.77
2018-05-17T15:47:56.882Z,34.70
2018-05-17T15:50:24.415Z,34.53
2018-05-17T15:52:52.629Z,32.17
2018-05-17T15:55:20.067Z,27.67
2018-05-17T15:57:47.593Z,32.10
2018-05-17T16:00:16.563Z,30.50
2018-05-17T16:02:44.102Z,28.00
2018-05-17T16:05:11.524Z,27.17
2018-05-17T16:07:39.718Z,27.47
2018-05-17T16:10:07.155Z,24.93
2018-05-17T16:12:35.357Z,29.03
2018-05-17T16:15:02.976Z,28.37
2018-05-17T16:17:30.227Z,30.93
2018-05-17T16:19:57.659Z,25.03
2018-05-17T16:22:25.100Z,35.53
2018-05-17T16:24:52.623Z,24.67
2018-05-17T16:27:20.833Z,27.97
2018-05-17T16:29:48.301Z,24.33
2018-05-17T16:32:15.735Z,26.87
2018-05-17T16:34:43.187Z,27.07
2018-05-17T16:37:10.618Z,25.30
2018-05-17T16:39:38.823Z,23.63
2018-05-17T16:42:06.277Z,23.70
2018-05-17T16:44:34.464Z,23.23
2018-05-17T16:47:01.895Z,30.63
2018-05-17T16:49:29.341Z,27.73
2018-05-17T16:51:57.542Z,16.97
2018-05-17T16:54:25.038Z,18.97
2018-05-17T16:56:52.414Z,19.37
2018-05-17T16:59:19.856Z,18.00
2018-05-17T17:01:47.287Z,20.00
2018-05-17T17:04:14.966Z,19.37
2018-05-17T17:06:42.167Z,15.77
2018-05-17T17:09:09.603Z,16.03
2018-05-17T17:11:37.812Z,16.70
2018-05-17T17:14:05.252Z,20.20
2018-05-17T17:16:32.690Z,18.47
2018-05-17T17:19:00.895Z,19.57
2018-05-17T17:21:28.326Z,19.40
2018-05-17T17:23:56.671Z,23.93
2018-05-17T17:26:23.985Z,20.10
2018-05-17T17:28:51.410Z,21.73
2018-05-17T17:31:19.621Z,18.80
2018-05-17T17:33:47.063Z,21.87
2018-05-17T17:36:14.508Z,26.17
2018-05-17T17:38:42.706Z,21.77
2018-05-17T17:41:10.149Z,25.70
2018-05-17T17:43:37.595Z,19.57
2018-05-17T17:46:05.035Z,21.30
2018-05-17T17:48:33.235Z,25.13
2018-05-17T17:51:00.680Z,20.67
2018-05-17T17:53:28.883Z,24.47
2018-05-17T17:55:56.327Z,23.40
2018-05-17T17:58:23.773Z,22.00
2018-05-17T18:00:51.972Z,19.53
2018-05-17T18:03:19.404Z,22.00
2018-05-17T18:05:46.838Z,21.87
2018-05-17T18:08:15.043Z,22.00
2018-05-17T18:10:42.495Z,21.90
2018-05-17T18:13:09.951Z,23.63
2018-05-17T18:15:37.394Z,24.93
2018-05-17T18:18:05.595Z,25.47
2018-05-17T18:20:33.042Z,31.00
2018-05-17T18:23:00.466Z,24.87
2018-05-17T18:25:27.933Z,29.47
2018-05-17T18:28:06.585Z,23.90
2018-05-17T18:30:34.155Z,21.50
2018-05-17T18:33:02.367Z,19.10
2018-05-17T18:35:32.563Z,20.83
2018-05-17T18:38:00.377Z,19.63
2018-05-17T18:40:28.527Z,27.43
2018-05-17T18:42:56.095Z,23.03
2018-05-17T18:45:23.526Z,27.67
2018-05-17T18:47:50.971Z,25.20
2018-05-17T18:50:18.487Z,27.13
2018-05-17T18:52:45.982Z,23.93
2018-05-17T18:55:14.183Z,25.57
2018-05-17T18:57:41.626Z,23.83
2018-05-17T19:00:09.871Z,26.03
2018-05-17T19:02:37.374Z,20.50
2018-05-17T19:05:04.734Z,25.17
2018-05-17T19:07:32.175Z,26.00
2018-05-17T19:10:00.379Z,30.93
2018-05-17T19:12:28.097Z,26.53
2018-05-17T19:14:55.527Z,26.50
2018-05-17T19:17:22.966Z,30.80
2018-05-17T19:19:50.404Z,25.33
2018-05-17T19:22:17.834Z,26.73
2018-05-17T19:24:46.047Z,33.33
2018-05-17T19:27:13.483Z,26.20
2018-05-17T19:29:40.915Z,27.17
2018-05-17T19:32:09.132Z,24.90
2018-05-17T19:34:36.558Z,30.63
2018-05-17T19:37:04.787Z,25.05
2018-05-17T19:39:32.212Z,24.63
2018-05-17T19:41:59.639Z,23.90
2018-05-17T19:44:27.838Z,23.77
2018-05-17T19:46:55.271Z,21.73
2018-05-17T19:49:23.478Z,25.77
2018-05-17T19:51:50.917Z,27.80
2018-05-17T19:54:18.362Z,25.13
2018-05-17T19:56:46.571Z,24.47
2018-05-17T19:59:14.014Z,25.77
2018-05-17T20:01:41.447Z,26.63
2018-05-17T20:04:09.655Z,29.23
2018-05-17T20:06:37.086Z,29.03
2018-05-17T20:09:05.319Z,32.17
2018-05-17T20:11:32.759Z,26.40
2018-05-17T20:14:00.200Z,31.60
2018-05-17T20:16:27.694Z,30.47
2018-05-17T20:18:55.913Z,29.20
2018-05-17T20:21:23.342Z,37.60
2018-05-17T20:23:50.779Z,34.60
2018-05-17T20:26:18.222Z,27.17
2018-05-17T20:28:45.673Z,30.53
2018-05-17T20:31:13.116Z,31.77
2018-05-17T20:33:40.568Z,32.83
2018-05-17T20:36:08.005Z,29.07
2018-05-17T20:38:36.207Z,27.10
2018-05-17T20:41:03.643Z,30.70
2018-05-17T20:43:31.118Z,29.57
2018-05-17T20:45:58.550Z,33.47
2018-05-17T20:48:25.991Z,30.80
2018-05-17T20:50:54.191Z,29.83
2018-05-17T20:53:21.634Z,25.70
2018-05-17T20:55:50.383Z,32.23
2018-05-17T20:58:17.897Z,31.40
2018-05-17T21:00:45.261Z,29.67
2018-05-17T21:03:12.695Z,30.67
2018-05-17T21:05:40.134Z,28.97
2018-05-17T21:08:08.335Z,31.77
2018-05-17T21:10:35.772Z,29.90
2018-05-17T21:13:03.983Z,38.33
2018-05-17T21:15:31.432Z,30.70
2018-05-17T21:17:58.857Z,28.33
2018-05-17T21:20:27.075Z,33.30
2018-05-17T21:22:54.518Z,32.00
2018-05-17T21:25:21.946Z,29.80
2018-05-17T21:27:50.155Z,37.83
2018-05-17T21:30:17.599Z,32.60
2018-05-17T21:32:45.031Z,30.77
2018-05-17T21:35:13.246Z,33.77
2018-05-17T21:37:40.691Z,30.43
2018-05-17T21:40:08.130Z,34.23
2018-05-17T21:42:35.563Z,32.47
2018-05-17T21:45:03.009Z,46.90
2018-05-17T21:47:30.436Z,44.03
2018-05-17T21:49:57.883Z,45.67
2018-05-17T21:52:25.315Z,40.57
2018-05-17T21:54:52.768Z,36.57
2018-05-17T21:57:20.971Z,38.00
2018-05-17T21:59:48.412Z,38.90
2018-05-17T22:02:15.860Z,33.30
2018-05-17T22:04:44.044Z,36.53
2018-05-17T22:07:11.484Z,34.37
2018-05-17T22:09:39.717Z,33.97
2018-05-17T22:12:07.150Z,35.57
2018-05-17T22:14:34.588Z,38.70
2018-05-17T22:17:02.024Z,33.97
2018-05-17T22:19:30.219Z,30.23
2018-05-17T22:21:57.660Z,29.93
2018-05-17T22:24:25.855Z,34.20
2018-05-17T22:26:53.297Z,30.90
2018-05-17T22:29:21.486Z,36.43
2018-05-17T22:31:48.922Z,36.93
2018-05-17T22:34:17.128Z,46.40
2018-05-17T22:36:44.568Z,40.20
2018-05-17T22:39:12.040Z,30.20
2018-05-17T22:41:39.454Z,37.00
2018-05-17T22:44:07.660Z,36.33
2018-05-17T22:46:35.102Z,31.13
2018-05-17T22:49:02.542Z,36.90
2018-05-17T22:51:29.984Z,31.83
2018-05-17T22:53:57.424Z,38.37
2018-05-17T22:56:36.701Z,36.83
2018-05-17T22:59:04.905Z,33.80
2018-05-17T23:01:32.338Z,40.83
2018-05-17T23:03:59.788Z,45.77
2018-05-17T23:06:28.002Z,37.80
2018-05-17T23:08:55.439Z,36.00
2018-05-17T23:11:22.882Z,33.70
2018-05-17T23:13:51.083Z,35.07
2018-05-17T23:16:18.527Z,40.30
2018-05-17T23:18:45.977Z,31.87
2018-05-17T23:21:13.410Z,38.87
2018-05-17T23:23:41.610Z,34.37
2018-05-17T23:26:09.044Z,36.67
2018-05-17T23:28:37.246Z,38.87
2018-05-17T23:31:04.679Z,33.60
2018-05-17T23:33:32.887Z,39.93
2018-05-17T23:36:00.316Z,50.53
2018-05-17T23:38:28.517Z,42.90
2018-05-17T23:41:08.639Z,39.10
2018-05-17T23:43:36.845Z,34.20
2018-05-17T23:46:04.266Z,38.57
2018-05-17T23:48:32.478Z,38.60
2018-05-17T23:50:59.907Z,41.73
2018-05-17T23:53:28.107Z,42.60
2018-05-17T23:55:55.545Z,36.47
2018-05-17T23:58:22.983Z,40.00
